sensor_id;sensor_type;location;lat;lon;timestamp;pressure;altitude;pressure_sealevel;temperature;humidity
75923;BME280;64602;47.542;19.090;2023-09-07T00:02:04;101070.50;;;17.50;71.39
75923;BME280;64602;47.542;19.090;2023-09-07T00:07:06;101079.31;;;17.42;71.68
75923;BME280;64602;47.542;19.090;2023-09-07T00:12:09;101082.06;;;17.37;72.06
75923;BME280;64602;47.542;19.090;2023-09-07T00:17:11;101086.22;;;17.29;72.55
75923;BME280;64602;47.542;19.090;2023-09-07T00:22:13;101084.59;;;17.28;72.64
75923;BME280;64602;47.542;19.090;2023-09-07T00:27:15;101091.72;;;17.24;72.78
75923;BME280;64602;47.542;19.090;2023-09-07T00:32:18;101090.91;;;17.29;72.81
75923;BME280;64602;47.542;19.090;2023-09-07T00:37:20;101087.91;;;17.20;73.19
75923;BME280;64602;47.542;19.090;2023-09-07T00:42:22;101080.25;;;17.07;73.46
75923;BME280;64602;47.542;19.090;2023-09-07T00:47:24;101080.31;;;16.97;73.93
75923;BME280;64602;47.542;19.090;2023-09-07T00:52:27;101086.59;;;17.02;73.52
75923;BME280;64602;47.542;19.090;2023-09-07T00:57:29;101076.47;;;16.93;73.53
75923;BME280;64602;47.542;19.090;2023-09-07T01:02:32;101079.75;;;16.90;73.66
75923;BME280;64602;47.542;19.090;2023-09-07T01:07:35;101084.16;;;16.85;73.62
75923;BME280;64602;47.542;19.090;2023-09-07T01:12:40;101077.81;;;16.75;73.87
75923;BME280;64602;47.542;19.090;2023-09-07T01:17:43;101083.59;;;16.68;74.10
75923;BME280;64602;47.542;19.090;2023-09-07T01:22:46;101086.34;;;16.58;74.39
75923;BME280;64602;47.542;19.090;2023-09-07T01:27:49;101092.94;;;16.52;74.73
75923;BME280;64602;47.542;19.090;2023-09-07T01:32:52;101066.34;;;16.47;74.73
75923;BME280;64602;47.542;19.090;2023-09-07T01:37:54;101085.25;;;16.54;74.79
75923;BME280;64602;47.542;19.090;2023-09-07T01:42:56;101084.16;;;16.50;74.99
75923;BME280;64602;47.542;19.090;2023-09-07T01:47:59;101075.66;;;16.31;75.87
75923;BME280;64602;47.542;19.090;2023-09-07T01:53:01;101075.13;;;16.34;76.22
75923;BME280;64602;47.542;19.090;2023-09-07T01:58:06;101080.06;;;16.37;76.45
75923;BME280;64602;47.542;19.090;2023-09-07T02:03:08;101076.22;;;16.33;76.41
75923;BME280;64602;47.542;19.090;2023-09-07T02:08:11;101079.50;;;16.24;76.73
75923;BME280;64602;47.542;19.090;2023-09-07T02:13:14;101089.09;;;16.27;76.34
75923;BME280;64602;47.542;19.090;2023-09-07T02:18:16;101081.94;;;16.26;76.12
75923;BME280;64602;47.542;19.090;2023-09-07T02:23:18;101077.03;;;16.18;75.67
75923;BME280;64602;47.542;19.090;2023-09-07T02:28:21;101093.47;;;16.23;75.49
75923;BME280;64602;47.542;19.090;2023-09-07T02:33:23;101085.25;;;16.18;75.54
75923;BME280;64602;47.542;19.090;2023-09-07T02:38:25;101080.03;;;16.11;75.53
75923;BME280;64602;47.542;19.090;2023-09-07T02:43:27;101071.00;;;16.06;75.56
75923;BME280;64602;47.542;19.090;2023-09-07T02:48:30;101079.47;;;15.99;75.73
75923;BME280;64602;47.542;19.090;2023-09-07T02:53:32;101087.09;;;15.92;76.33
75923;BME280;64602;47.542;19.090;2023-09-07T02:58:34;101090.41;;;15.89;76.73
75923;BME280;64602;47.542;19.090;2023-09-07T03:03:39;101086.03;;;15.88;77.22
75923;BME280;64602;47.542;19.090;2023-09-07T03:08:43;101089.03;;;15.91;77.41
75923;BME280;64602;47.542;19.090;2023-09-07T03:13:46;101094.25;;;15.93;77.75
75923;BME280;64602;47.542;19.090;2023-09-07T03:18:48;101086.81;;;15.78;78.21
75923;BME280;64602;47.542;19.090;2023-09-07T03:23:52;101089.81;;;15.76;78.86
75923;BME280;64602;47.542;19.090;2023-09-07T03:28:55;101079.06;;;15.65;79.31
75923;BME280;64602;47.542;19.090;2023-09-07T03:33:57;101082.59;;;15.55;79.44
75923;BME280;64602;47.542;19.090;2023-09-07T03:38:59;101082.84;;;15.48;79.62
75923;BME280;64602;47.542;19.090;2023-09-07T03:44:01;101101.75;;;15.50;80.10
75923;BME280;64602;47.542;19.090;2023-09-07T03:49:03;101099.53;;;15.42;80.15
75923;BME280;64602;47.542;19.090;2023-09-07T03:54:05;101105.78;;;15.32;80.71
75923;BME280;64602;47.542;19.090;2023-09-07T03:59:07;101102.47;;;15.30;80.64
75923;BME280;64602;47.542;19.090;2023-09-07T04:04:10;101098.88;;;15.24;80.94
75923;BME280;64602;47.542;19.090;2023-09-07T04:09:12;101101.87;;;15.23;80.96
75923;BME280;64602;47.542;19.090;2023-09-07T04:14:14;101100.19;;;15.16;80.78
75923;BME280;64602;47.542;19.090;2023-09-07T04:19:16;101105.41;;;15.18;80.87
75923;BME280;64602;47.542;19.090;2023-09-07T04:24:18;101108.37;;;15.11;80.90
75923;BME280;64602;47.542;19.090;2023-09-07T04:29:20;101112.50;;;15.14;80.82
75923;BME280;64602;47.542;19.090;2023-09-07T04:34:23;101113.31;;;15.14;80.41
75923;BME280;64602;47.542;19.090;2023-09-07T04:39:25;101123.19;;;15.21;80.33
75923;BME280;64602;47.542;19.090;2023-09-07T04:44:27;101124.59;;;15.23;80.21
75923;BME280;64602;47.542;19.090;2023-09-07T04:49:30;101126.53;;;15.28;80.12
75923;BME280;64602;47.542;19.090;2023-09-07T04:54:32;101113.41;;;15.30;79.80
75923;BME280;64602;47.542;19.090;2023-09-07T04:59:34;101123.03;;;15.37;79.59
75923;BME280;64602;47.542;19.090;2023-09-07T05:04:36;101129.31;;;15.43;79.43
75923;BME280;64602;47.542;19.090;2023-09-07T05:09:38;101123.88;;;15.48;79.17
75923;BME280;64602;47.542;19.090;2023-09-07T05:14:41;101140.62;;;15.62;78.74
75923;BME280;64602;47.542;19.090;2023-09-07T05:19:43;101129.13;;;15.60;78.48
75923;BME280;64602;47.542;19.090;2023-09-07T05:24:45;101139.84;;;15.67;78.35
75923;BME280;64602;47.542;19.090;2023-09-07T05:29:49;101127.03;;;15.77;78.03
75923;BME280;64602;47.542;19.090;2023-09-07T05:34:51;101142.44;;;16.04;77.22
75923;BME280;64602;47.542;19.090;2023-09-07T05:39:53;101131.00;;;16.38;75.71
75923;BME280;64602;47.542;19.090;2023-09-07T05:44:56;101146.63;;;16.68;74.04
75923;BME280;64602;47.542;19.090;2023-09-07T05:49:58;101150.22;;;16.79;73.58
75923;BME280;64602;47.542;19.090;2023-09-07T05:55:00;101160.91;;;16.80;73.60
75923;BME280;64602;47.542;19.090;2023-09-07T06:00:03;101141.72;;;16.85;73.12
75923;BME280;64602;47.542;19.090;2023-09-07T06:05:06;101156.22;;;16.96;72.57
75923;BME280;64602;47.542;19.090;2023-09-07T06:10:11;101153.22;;;17.03;72.22
75923;BME280;64602;47.542;19.090;2023-09-07T06:15:13;101157.84;;;17.13;71.99
75923;BME280;64602;47.542;19.090;2023-09-07T06:20:16;101157.56;;;17.24;71.41
75923;BME280;64602;47.542;19.090;2023-09-07T06:25:18;101166.03;;;17.43;71.11
75923;BME280;64602;47.542;19.090;2023-09-07T06:30:20;101165.44;;;17.51;70.63
75923;BME280;64602;47.542;19.090;2023-09-07T06:35:23;101164.03;;;17.64;69.98
75923;BME280;64602;47.542;19.090;2023-09-07T06:40:25;101172.22;;;17.85;69.83
75923;BME280;64602;47.542;19.090;2023-09-07T06:45:28;101162.56;;;17.92;69.48
75923;BME280;64602;47.542;19.090;2023-09-07T06:50:30;101175.91;;;18.14;68.73
75923;BME280;64602;47.542;19.090;2023-09-07T06:55:32;101173.59;;;18.32;68.41
75923;BME280;64602;47.542;19.090;2023-09-07T07:00:34;101172.94;;;18.50;67.16
75923;BME280;64602;47.542;19.090;2023-09-07T07:05:37;101168.97;;;18.62;67.14
75923;BME280;64602;47.542;19.090;2023-09-07T07:10:39;101183.16;;;18.84;66.98
75923;BME280;64602;47.542;19.090;2023-09-07T07:15:41;101187.69;;;18.99;66.69
75923;BME280;64602;47.542;19.090;2023-09-07T07:20:44;101182.84;;;19.15;65.95
75923;BME280;64602;47.542;19.090;2023-09-07T07:25:47;101188.00;;;19.21;65.54
75923;BME280;64602;47.542;19.090;2023-09-07T07:30:49;101197.19;;;19.41;64.63
75923;BME280;64602;47.542;19.090;2023-09-07T07:35:54;101196.44;;;19.59;64.70
75923;BME280;64602;47.542;19.090;2023-09-07T07:40:56;101189.94;;;19.74;64.41
75923;BME280;64602;47.542;19.090;2023-09-07T07:45:58;101186.03;;;19.99;63.90
75923;BME280;64602;47.542;19.090;2023-09-07T07:51:04;101188.63;;;20.15;63.36
75923;BME280;64602;47.542;19.090;2023-09-07T07:56:17;101197.38;;;20.36;62.56
75923;BME280;64602;47.542;19.090;2023-09-07T08:01:20;101182.78;;;20.54;62.76
75923;BME280;64602;47.542;19.090;2023-09-07T08:06:23;101192.09;;;20.77;61.73
75923;BME280;64602;47.542;19.090;2023-09-07T08:11:25;101189.19;;;21.01;61.35
75923;BME280;64602;47.542;19.090;2023-09-07T08:16:28;101185.87;;;21.18;61.02
75923;BME280;64602;47.542;19.090;2023-09-07T08:21:30;101191.25;;;21.42;60.76
75923;BME280;64602;47.542;19.090;2023-09-07T08:26:33;101205.38;;;21.54;59.65
75923;BME280;64602;47.542;19.090;2023-09-07T08:31:35;101184.59;;;21.71;59.62
75923;BME280;64602;47.542;19.090;2023-09-07T08:36:38;101179.56;;;21.87;58.14
75923;BME280;64602;47.542;19.090;2023-09-07T08:41:40;101189.16;;;22.17;58.29
75923;BME280;64602;47.542;19.090;2023-09-07T08:47:02;101176.19;;;22.40;57.69
75923;BME280;64602;47.542;19.090;2023-09-07T08:52:06;101159.28;;;22.64;56.45
75923;BME280;64602;47.542;19.090;2023-09-07T08:57:10;101154.03;;;22.99;55.20
75923;BME280;64602;47.542;19.090;2023-09-07T09:02:12;101154.34;;;23.29;54.48
75923;BME280;64602;47.542;19.090;2023-09-07T09:07:15;101165.53;;;23.55;53.06
75923;BME280;64602;47.542;19.090;2023-09-07T09:12:17;101165.13;;;23.87;51.81
75923;BME280;64602;47.542;19.090;2023-09-07T09:17:19;101150.78;;;24.03;50.55
75923;BME280;64602;47.542;19.090;2023-09-07T09:22:22;101146.91;;;24.39;49.44
75923;BME280;64602;47.542;19.090;2023-09-07T09:27:26;101148.34;;;24.71;47.99
75923;BME280;64602;47.542;19.090;2023-09-07T09:32:29;101148.28;;;25.06;46.88
75923;BME280;64602;47.542;19.090;2023-09-07T09:37:31;101150.47;;;25.38;44.41
75923;BME280;64602;47.542;19.090;2023-09-07T09:42:33;101146.06;;;25.67;44.21
75923;BME280;64602;47.542;19.090;2023-09-07T09:47:41;101150.41;;;26.28;43.26
75923;BME280;64602;47.542;19.090;2023-09-07T09:52:45;101139.91;;;26.54;40.29
75923;BME280;64602;47.542;19.090;2023-09-07T09:57:47;101131.44;;;27.08;39.75
75923;BME280;64602;47.542;19.090;2023-09-07T10:03:10;101137.31;;;27.53;37.65
75923;BME280;64602;47.542;19.090;2023-09-07T10:08:17;101131.69;;;28.02;37.08
75923;BME280;64602;47.542;19.090;2023-09-07T10:13:30;101127.88;;;28.63;35.38
75923;BME280;64602;47.542;19.090;2023-09-07T10:18:34;101122.72;;;29.40;35.15
75923;BME280;64602;47.542;19.090;2023-09-07T10:23:38;101127.97;;;29.93;34.23
75923;BME280;64602;47.542;19.090;2023-09-07T10:28:41;101130.34;;;30.50;33.97
75923;BME280;64602;47.542;19.090;2023-09-07T10:33:45;101126.50;;;30.58;33.59
75923;BME280;64602;47.542;19.090;2023-09-07T10:38:48;101125.13;;;30.91;32.59
75923;BME280;64602;47.542;19.090;2023-09-07T10:43:53;101131.59;;;30.95;31.49
75923;BME280;64602;47.542;19.090;2023-09-07T10:48:55;101116.38;;;31.19;31.69
75923;BME280;64602;47.542;19.090;2023-09-07T10:53:58;101113.50;;;31.38;31.31
75923;BME280;64602;47.542;19.090;2023-09-07T10:59:02;101102.38;;;31.42;31.10
75923;BME280;64602;47.542;19.090;2023-09-07T11:04:04;101099.03;;;31.09;30.47
75923;BME280;64602;47.542;19.090;2023-09-07T11:09:08;101084.75;;;31.18;30.72
75923;BME280;64602;47.542;19.090;2023-09-07T11:14:13;101095.41;;;31.36;31.09
75923;BME280;64602;47.542;19.090;2023-09-07T11:19:15;101097.38;;;31.32;31.17
75923;BME280;64602;47.542;19.090;2023-09-07T11:24:17;101086.50;;;31.03;31.25
75923;BME280;64602;47.542;19.090;2023-09-07T11:29:22;101085.97;;;30.75;30.73
75923;BME280;64602;47.542;19.090;2023-09-07T11:34:24;101077.59;;;30.32;29.72
75923;BME280;64602;47.542;19.090;2023-09-07T11:39:27;101077.91;;;29.56;31.11
75923;BME280;64602;47.542;19.090;2023-09-07T11:44:29;101070.63;;;29.87;31.19
75923;BME280;64602;47.542;19.090;2023-09-07T11:49:32;101057.59;;;30.14;31.29
75923;BME280;64602;47.542;19.090;2023-09-07T11:54:34;101050.31;;;30.29;30.90
75923;BME280;64602;47.542;19.090;2023-09-07T11:59:36;101056.94;;;30.40;30.48
75923;BME280;64602;47.542;19.090;2023-09-07T12:04:57;101053.78;;;30.65;30.49
75923;BME280;64602;47.542;19.090;2023-09-07T12:09:59;101047.37;;;30.87;30.48
75923;BME280;64602;47.542;19.090;2023-09-07T12:15:01;101043.81;;;31.14;30.52
75923;BME280;64602;47.542;19.090;2023-09-07T12:20:06;101039.44;;;31.16;30.17
75923;BME280;64602;47.542;19.090;2023-09-07T12:25:11;101037.16;;;30.99;30.17
75923;BME280;64602;47.542;19.090;2023-09-07T12:30:21;101034.47;;;31.33;29.67
75923;BME280;64602;47.542;19.090;2023-09-07T12:35:24;101040.00;;;31.52;29.12
75923;BME280;64602;47.542;19.090;2023-09-07T12:40:27;101037.00;;;31.68;28.83
75923;BME280;64602;47.542;19.090;2023-09-07T12:45:29;101027.84;;;31.75;28.21
75923;BME280;64602;47.542;19.090;2023-09-07T12:50:32;101032.31;;;31.79;27.92
75923;BME280;64602;47.542;19.090;2023-09-07T12:55:34;101021.91;;;32.10;27.96
75923;BME280;64602;47.542;19.090;2023-09-07T13:00:36;101020.47;;;32.27;27.48
75923;BME280;64602;47.542;19.090;2023-09-07T13:05:38;101016.94;;;32.33;27.10
75923;BME280;64602;47.542;19.090;2023-09-07T13:10:41;101016.06;;;32.67;27.07
75923;BME280;64602;47.542;19.090;2023-09-07T13:15:43;101011.09;;;33.01;27.09
75923;BME280;64602;47.542;19.090;2023-09-07T13:20:45;101017.16;;;33.66;26.25
75923;BME280;64602;47.542;19.090;2023-09-07T13:25:48;101012.12;;;34.11;25.12
75923;BME280;64602;47.542;19.090;2023-09-07T13:30:50;101011.00;;;34.47;24.80
75923;BME280;64602;47.542;19.090;2023-09-07T13:35:53;101001.72;;;34.54;23.56
75923;BME280;64602;47.542;19.090;2023-09-07T13:40:55;100997.69;;;34.55;24.30
75923;BME280;64602;47.542;19.090;2023-09-07T13:45:57;100996.50;;;34.71;24.12
75923;BME280;64602;47.542;19.090;2023-09-07T13:50:59;100996.37;;;35.57;23.54
75923;BME280;64602;47.542;19.090;2023-09-07T13:56:02;101001.38;;;36.15;22.99
75923;BME280;64602;47.542;19.090;2023-09-07T14:01:04;100993.19;;;36.28;22.75
75923;BME280;64602;47.542;19.090;2023-09-07T14:06:06;100984.06;;;36.03;22.19
75923;BME280;64602;47.542;19.090;2023-09-07T14:11:09;100987.94;;;36.34;22.51
75923;BME280;64602;47.542;19.090;2023-09-07T14:16:11;100987.38;;;36.50;22.24
75923;BME280;64602;47.542;19.090;2023-09-07T14:21:16;100976.56;;;36.37;22.10
75923;BME280;64602;47.542;19.090;2023-09-07T14:26:19;100966.59;;;36.74;21.41
75923;BME280;64602;47.542;19.090;2023-09-07T14:31:21;100973.16;;;36.64;21.33
75923;BME280;64602;47.542;19.090;2023-09-07T14:36:23;100976.78;;;36.65;21.56
75923;BME280;64602;47.542;19.090;2023-09-07T14:41:25;100971.12;;;36.65;20.98
75923;BME280;64602;47.542;19.090;2023-09-07T14:46:29;100964.53;;;36.26;21.24
75923;BME280;64602;47.542;19.090;2023-09-07T14:51:32;100953.28;;;36.23;21.08
75923;BME280;64602;47.542;19.090;2023-09-07T14:56:34;100944.84;;;36.12;21.52
75923;BME280;64602;47.542;19.090;2023-09-07T15:01:37;100953.28;;;35.38;22.01
75923;BME280;64602;47.542;19.090;2023-09-07T15:06:40;100958.25;;;34.73;22.59
75923;BME280;64602;47.542;19.090;2023-09-07T15:11:42;100960.59;;;34.07;22.53
75923;BME280;64602;47.542;19.090;2023-09-07T15:16:45;100958.28;;;33.32;22.92
75923;BME280;64602;47.542;19.090;2023-09-07T15:21:47;100963.44;;;32.19;23.60
75923;BME280;64602;47.542;19.090;2023-09-07T15:26:49;100946.66;;;32.26;23.80
75923;BME280;64602;47.542;19.090;2023-09-07T15:31:51;100942.50;;;31.45;24.67
75923;BME280;64602;47.542;19.090;2023-09-07T15:36:55;100939.84;;;31.90;24.32
75923;BME280;64602;47.542;19.090;2023-09-07T15:41:57;100931.28;;;30.88;25.80
75923;BME280;64602;47.542;19.090;2023-09-07T15:46:59;100926.25;;;30.25;26.64
75923;BME280;64602;47.542;19.090;2023-09-07T15:52:02;100937.28;;;29.75;26.88
75923;BME280;64602;47.542;19.090;2023-09-07T15:57:05;100941.25;;;29.55;27.38
75923;BME280;64602;47.542;19.090;2023-09-07T16:02:07;100939.84;;;29.26;27.75
75923;BME280;64602;47.542;19.090;2023-09-07T16:07:09;100948.00;;;28.99;28.35
75923;BME280;64602;47.542;19.090;2023-09-07T16:12:12;100950.91;;;28.71;28.83
75923;BME280;64602;47.542;19.090;2023-09-07T16:17:14;100940.62;;;28.43;29.48
75923;BME280;64602;47.542;19.090;2023-09-07T16:22:16;100946.72;;;28.17;29.74
75923;BME280;64602;47.542;19.090;2023-09-07T16:27:19;100942.47;;;27.91;30.40
75923;BME280;64602;47.542;19.090;2023-09-07T16:32:21;100940.00;;;27.62;31.27
75923;BME280;64602;47.542;19.090;2023-09-07T16:37:23;100944.25;;;27.43;31.94
75923;BME280;64602;47.542;19.090;2023-09-07T16:42:28;100953.47;;;27.32;32.31
75923;BME280;64602;47.542;19.090;2023-09-07T16:47:30;100953.50;;;27.07;33.10
75923;BME280;64602;47.542;19.090;2023-09-07T16:52:32;100946.44;;;26.85;33.87
75923;BME280;64602;47.542;19.090;2023-09-07T16:57:35;100949.22;;;26.60;34.88
75923;BME280;64602;47.542;19.090;2023-09-07T17:02:37;100954.59;;;26.32;35.38
75923;BME280;64602;47.542;19.090;2023-09-07T17:07:39;100964.97;;;26.11;35.85
75923;BME280;64602;47.542;19.090;2023-09-07T17:12:42;100962.41;;;25.85;36.50
75923;BME280;64602;47.542;19.090;2023-09-07T17:17:44;100962.84;;;25.74;36.88
75923;BME280;64602;47.542;19.090;2023-09-07T17:22:48;100965.72;;;25.45;37.52
75923;BME280;64602;47.542;19.090;2023-09-07T17:27:51;100970.94;;;25.25;37.88
75923;BME280;64602;47.542;19.090;2023-09-07T17:32:53;100984.91;;;25.08;38.40
75923;BME280;64602;47.542;19.090;2023-09-07T17:37:58;100996.28;;;24.85;39.03
75923;BME280;64602;47.542;19.090;2023-09-07T17:43:01;100993.09;;;24.66;39.43
75923;BME280;64602;47.542;19.090;2023-09-07T17:48:03;100995.56;;;24.59;39.75
75923;BME280;64602;47.542;19.090;2023-09-07T17:53:06;100997.25;;;24.42;40.17
75923;BME280;64602;47.542;19.090;2023-09-07T17:58:08;101000.88;;;24.25;40.68
75923;BME280;64602;47.542;19.090;2023-09-07T18:03:11;101014.78;;;24.08;41.32
75923;BME280;64602;47.542;19.090;2023-09-07T18:08:13;101006.47;;;23.99;41.47
75923;BME280;64602;47.542;19.090;2023-09-07T18:13:16;101021.00;;;23.79;42.14
75923;BME280;64602;47.542;19.090;2023-09-07T18:18:18;101012.00;;;23.64;42.40
75923;BME280;64602;47.542;19.090;2023-09-07T18:23:20;101010.34;;;23.46;42.90
75923;BME280;64602;47.542;19.090;2023-09-07T18:28:22;101012.25;;;23.37;43.13
75923;BME280;64602;47.542;19.090;2023-09-07T18:33:24;101020.72;;;23.23;43.50
75923;BME280;64602;47.542;19.090;2023-09-07T18:38:27;101027.37;;;23.13;43.89
75923;BME280;64602;47.542;19.090;2023-09-07T18:43:29;101025.22;;;23.01;44.09
75923;BME280;64602;47.542;19.090;2023-09-07T18:48:33;101033.28;;;22.89;44.43
75923;BME280;64602;47.542;19.090;2023-09-07T18:53:36;101025.41;;;22.74;44.81
75923;BME280;64602;47.542;19.090;2023-09-07T18:58:38;101027.94;;;22.61;45.18
75923;BME280;64602;47.542;19.090;2023-09-07T19:03:44;101038.47;;;22.51;45.70
75923;BME280;64602;47.542;19.090;2023-09-07T19:08:47;101029.75;;;22.35;46.55
75923;BME280;64602;47.542;19.090;2023-09-07T19:13:49;101040.78;;;22.12;47.17
75923;BME280;64602;47.542;19.090;2023-09-07T19:18:51;101040.53;;;22.00;47.58
75923;BME280;64602;47.542;19.090;2023-09-07T19:23:54;101042.62;;;21.94;48.14
75923;BME280;64602;47.542;19.090;2023-09-07T19:28:57;101034.59;;;21.70;48.64
75923;BME280;64602;47.542;19.090;2023-09-07T19:34:00;101045.31;;;21.72;49.04
75923;BME280;64602;47.542;19.090;2023-09-07T19:39:02;101040.28;;;21.51;49.91
75923;BME280;64602;47.542;19.090;2023-09-07T19:44:05;101040.25;;;21.38;50.65
75923;BME280;64602;47.542;19.090;2023-09-07T19:49:07;101042.19;;;21.37;51.46
75923;BME280;64602;47.542;19.090;2023-09-07T19:54:09;101031.97;;;21.24;52.81
75923;BME280;64602;47.542;19.090;2023-09-07T19:59:12;101027.69;;;21.18;53.66
